createdAt,value
2023-03-18T00:01:11.045Z,100923.80
2023-03-18T00:03:39.630Z,100926.45
2023-03-18T00:06:17.031Z,100926.52
2023-03-18T00:08:47.289Z,100931.20
2023-03-18T00:11:18.638Z,100924.52
2023-03-18T00:13:46.726Z,100927.52
2023-03-18T00:16:15.892Z,100926.84
2023-03-18T00:18:43.928Z,100919.92
2023-03-18T00:21:12.362Z,100921.80
2023-03-18T00:23:40.662Z,100920.83
2023-03-18T00:26:09.019Z,100919.17
2023-03-18T00:28:38.335Z,100918.66
2023-03-18T00:31:09.164Z,100911.15
2023-03-18T00:33:38.424Z,100909.60
2023-03-18T00:36:10.281Z,100904.65
2023-03-18T00:38:38.178Z,100902.84
2023-03-18T00:41:11.787Z,100898.14
2023-03-18T00:43:52.626Z,100898.37
2023-03-18T00:46:29.832Z,100886.98
2023-03-18T00:49:00.727Z,100888.65
2023-03-18T00:51:32.343Z,100883.90
2023-03-18T00:54:02.086Z,100882.79
2023-03-18T00:56:30.978Z,100878.20
2023-03-18T00:59:00.166Z,100881.01
2023-03-18T01:01:28.907Z,100879.10
2023-03-18T01:03:59.715Z,100877.64
2023-03-18T01:06:31.305Z,100871.45
2023-03-18T01:08:59.637Z,100869.52
2023-03-18T01:11:28.366Z,100869.85
2023-03-18T01:13:57.128Z,100867.90
2023-03-18T01:16:25.146Z,100866.91
2023-03-18T01:18:53.832Z,100860.92
2023-03-18T01:21:22.522Z,100856.06
2023-03-18T01:23:54.447Z,100853.58
2023-03-18T01:26:23.204Z,100856.55
2023-03-18T01:28:51.813Z,100853.64
2023-03-18T01:31:19.619Z,100855.36
2023-03-18T01:33:48.721Z,100852.19
2023-03-18T01:36:17.567Z,100850.08
2023-03-18T01:38:45.916Z,100850.14
2023-03-18T01:41:17.193Z,100849.96
2023-03-18T01:43:45.023Z,100849.59
2023-03-18T01:46:32.050Z,100842.85
2023-03-18T01:49:02.656Z,100843.48
2023-03-18T01:51:31.225Z,100843.20
2023-03-18T01:54:03.392Z,100841.52
2023-03-18T01:56:33.462Z,100843.17
2023-03-18T01:59:01.288Z,100836.05
2023-03-18T02:01:53.205Z,100844.33
2023-03-18T02:04:25.865Z,100838.15
2023-03-18T02:06:53.632Z,100839.91
2023-03-18T02:09:21.648Z,100838.05
2023-03-18T02:11:51.717Z,100833.94
2023-03-18T02:14:23.753Z,100841.52
2023-03-18T02:17:01.785Z,100839.52
2023-03-18T02:19:49.170Z,100844.96
2023-03-18T02:22:32.045Z,100836.40
2023-03-18T02:25:13.534Z,100838.02
2023-03-18T02:27:46.011Z,100841.30
2023-03-18T02:30:33.638Z,100841.70
2023-03-18T02:33:02.637Z,100842.55
2023-03-18T02:35:32.255Z,100840.86
2023-03-18T02:38:01.696Z,100843.57
2023-03-18T02:40:38.668Z,100838.48
2023-03-18T02:43:27.580Z,100839.15
2023-03-18T02:46:12.130Z,100834.55
2023-03-18T02:48:44.882Z,100832.27
2023-03-18T02:51:16.222Z,100831.55
2023-03-18T02:53:45.049Z,100825.34
2023-03-18T02:56:13.483Z,100825.23
2023-03-18T02:58:42.401Z,100822.46
2023-03-18T03:01:11.494Z,100821.61
2023-03-18T03:03:40.141Z,100819.80
2023-03-18T03:06:11.109Z,100815.70
2023-03-18T03:08:39.529Z,100810.80
2023-03-18T03:11:08.528Z,100809.27
2023-03-18T03:13:40.046Z,100809.08
2023-03-18T03:16:10.705Z,100804.04
2023-03-18T03:18:38.596Z,100806.10
2023-03-18T03:21:06.727Z,100803.70
2023-03-18T03:23:36.747Z,100807.69
2023-03-18T03:26:05.290Z,100806.82
2023-03-18T03:28:33.979Z,100803.64
2023-03-18T03:31:02.129Z,100804.77
2023-03-18T03:33:30.096Z,100803.10
2023-03-18T03:35:58.433Z,100799.75
2023-03-18T03:38:26.740Z,100804.74
2023-03-18T03:40:55.928Z,100802.84
2023-03-18T03:43:23.836Z,100805.89
2023-03-18T03:45:51.628Z,100802.81
2023-03-18T03:48:19.352Z,100808.98
2023-03-18T03:50:47.696Z,100810.92
2023-03-18T03:53:15.838Z,100813.64
2023-03-18T03:55:44.450Z,100814.98
2023-03-18T03:58:12.438Z,100815.59
2023-03-18T04:00:40.975Z,100818.34
2023-03-18T04:03:09.017Z,100819.85
2023-03-18T04:05:37.358Z,100814.61
2023-03-18T04:08:06.674Z,100812.09
2023-03-18T04:10:38.646Z,100813.70
2023-03-18T04:13:08.874Z,100816.22
2023-03-18T04:15:36.675Z,100818.60
2023-03-18T04:18:09.030Z,100817.35
2023-03-18T04:20:38.822Z,100816.36
2023-03-18T04:23:14.254Z,100815.44
2023-03-18T04:25:42.826Z,100813.30
2023-03-18T04:28:10.718Z,100824.67
2023-03-18T04:30:38.727Z,100826.39
2023-03-18T04:33:10.457Z,100828.95
2023-03-18T04:35:43.687Z,100835.85
2023-03-18T04:38:12.286Z,100832.14
2023-03-18T04:40:40.253Z,100829.16
2023-03-18T04:43:10.093Z,100832.55
2023-03-18T04:45:38.366Z,100831.05
2023-03-18T04:48:06.533Z,100833.46
2023-03-18T04:50:37.964Z,100834.67
2023-03-18T04:53:06.683Z,100833.74
2023-03-18T04:55:34.740Z,100830.27
2023-03-18T04:58:03.537Z,100831.62
2023-03-18T05:00:32.755Z,100823.67
2023-03-18T05:03:12.963Z,100818.98
2023-03-18T05:05:41.602Z,100815.77
2023-03-18T05:08:10.430Z,100822.56
2023-03-18T05:10:40.206Z,100822.09
2023-03-18T05:13:09.573Z,100822.42
2023-03-18T05:15:37.711Z,100821.98
2023-03-18T05:18:05.678Z,100822.56
2023-03-18T05:20:34.024Z,100824.11
2023-03-18T05:23:03.187Z,100822.01
2023-03-18T05:25:42.989Z,100815.52
2023-03-18T05:28:11.492Z,100815.86
2023-03-18T05:30:52.376Z,100813.20
2023-03-18T05:33:23.023Z,100809.92
2023-03-18T05:35:56.872Z,100808.91
2023-03-18T05:38:29.186Z,100810.05
2023-03-18T05:40:57.564Z,100809.54
2023-03-18T05:43:32.802Z,100809.29
2023-03-18T05:46:00.840Z,100804.40
2023-03-18T05:48:43.584Z,100808.45
2023-03-18T05:51:12.677Z,100811.64
2023-03-18T05:53:41.234Z,100813.52
2023-03-18T05:56:19.319Z,100819.76
2023-03-18T05:58:52.026Z,100818.30
2023-03-18T06:01:31.609Z,100821.16
2023-03-18T06:04:00.634Z,100813.80
2023-03-18T06:06:29.069Z,100808.34
2023-03-18T06:08:57.007Z,100806.64
2023-03-18T06:11:24.992Z,100803.44
2023-03-18T06:13:53.246Z,100806.41
2023-03-18T06:16:22.388Z,100807.87
2023-03-18T06:18:52.447Z,100808.32
2023-03-18T06:21:20.204Z,100809.64
2023-03-18T06:23:48.448Z,100809.23
2023-03-18T06:26:17.122Z,100811.34
2023-03-18T06:28:48.846Z,100807.48
2023-03-18T06:31:17.897Z,100807.15
2023-03-18T06:33:46.476Z,100803.80
2023-03-18T06:36:16.769Z,100806.10
2023-03-18T06:38:49.817Z,100803.89
2023-03-18T06:41:18.357Z,100804.92
2023-03-18T06:44:05.220Z,100809.67
2023-03-18T06:46:33.093Z,100813.16
2023-03-18T06:49:01.987Z,100813.48
2023-03-18T06:51:33.555Z,100821.77
2023-03-18T06:54:01.506Z,100819.63
2023-03-18T06:56:33.850Z,100821.16
2023-03-18T07:02:43.311Z,100814.40
2023-03-18T07:05:13.216Z,100813.90
2023-03-18T07:07:42.116Z,100816.34
2023-03-18T07:10:18.871Z,100817.98
2023-03-18T07:12:48.016Z,100815.30
2023-03-18T07:15:21.703Z,100811.05
2023-03-18T07:17:52.256Z,100813.73
2023-03-18T07:20:22.268Z,100817.76
2023-03-18T07:22:51.403Z,100819.15
2023-03-18T07:25:21.699Z,100823.38
2023-03-18T07:27:51.215Z,100816.04
2023-03-18T07:30:20.220Z,100822.38
2023-03-18T07:32:49.862Z,100828.67
2023-03-18T07:35:17.790Z,100831.27
2023-03-18T07:37:46.195Z,100834.50
2023-03-18T07:40:14.750Z,100832.45
2023-03-18T07:42:42.838Z,100832.77
2023-03-18T07:45:10.852Z,100831.70
2023-03-18T07:47:38.930Z,100831.42
2023-03-18T07:50:07.571Z,100829.23
2023-03-18T07:52:35.783Z,100819.86
2023-03-18T07:55:04.499Z,100825.40
2023-03-18T08:01:03.214Z,100827.13
2023-03-18T08:03:31.002Z,100826.58
2023-03-18T08:05:58.724Z,100823.25
2023-03-18T08:08:26.577Z,100822.15
2023-03-18T08:11:00.435Z,100823.05
2023-03-18T08:13:28.865Z,100823.02
2023-03-18T08:15:56.661Z,100824.88
2023-03-18T08:18:24.724Z,100821.84
2023-03-18T08:20:53.174Z,100824.69
2023-03-18T08:23:21.227Z,100820.58
2023-03-18T08:25:50.834Z,100819.52
2023-03-18T08:28:19.244Z,100819.27
2023-03-18T08:30:47.444Z,100814.48
2023-03-18T08:33:15.912Z,100813.34
2023-03-18T08:35:43.725Z,100810.75
2023-03-18T08:38:11.643Z,100805.78
2023-03-18T08:40:41.248Z,100807.59
2023-03-18T08:43:10.050Z,100807.98
2023-03-18T08:45:37.902Z,100805.16
2023-03-18T08:48:06.289Z,100796.02
2023-03-18T08:50:35.693Z,100791.70
2023-03-18T08:53:03.911Z,100789.52
2023-03-18T08:55:35.138Z,100786.28
2023-03-18T08:58:05.776Z,100781.83
2023-03-18T09:00:36.531Z,100779.85
2023-03-18T09:03:05.111Z,100778.36
2023-03-18T09:05:34.227Z,100779.30
2023-03-18T09:08:02.075Z,100774.71
2023-03-18T09:10:30.479Z,100772.90
2023-03-18T09:12:58.230Z,100767.53
2023-03-18T09:15:27.317Z,100767.27
2023-03-18T09:18:10.508Z,100764.83
2023-03-18T09:20:41.106Z,100767.40
2023-03-18T09:23:09.865Z,100766.11
2023-03-18T09:25:38.525Z,100765.16
2023-03-18T09:28:06.418Z,100766.42
2023-03-18T09:30:34.300Z,100765.08
2023-03-18T09:33:02.184Z,100762.73
2023-03-18T09:35:30.525Z,100761.61
2023-03-18T09:37:58.856Z,100754.58
2023-03-18T09:40:44.065Z,100751.37
2023-03-18T09:43:14.500Z,100751.41
2023-03-18T09:46:03.833Z,100753.41
2023-03-18T09:48:58.006Z,100753.84
2023-03-18T09:51:57.592Z,100751.44
2023-03-18T09:54:44.667Z,100753.65
2023-03-18T09:57:23.011Z,100750.26
2023-03-18T09:59:55.440Z,100755.46
2023-03-18T10:02:47.624Z,100755.80
2023-03-18T10:05:25.371Z,100759.33
2023-03-18T10:07:57.239Z,100754.95
2023-03-18T10:10:34.688Z,100750.61
2023-03-18T10:13:18.406Z,100753.24
2023-03-18T10:15:51.571Z,100748.69
2023-03-18T10:18:30.718Z,100746.88
2023-03-18T10:21:12.028Z,100744.16
2023-03-18T10:24:04.236Z,100740.42
2023-03-18T10:26:40.720Z,100734.91
2023-03-18T10:29:23.397Z,100734.90
2023-03-18T10:32:03.753Z,100732.85
2023-03-18T10:34:40.576Z,100723.98
2023-03-18T10:37:37.158Z,100717.36
2023-03-18T10:40:17.790Z,100712.60
2023-03-18T10:42:46.258Z,100712.05
2023-03-18T10:45:27.542Z,100708.98
2023-03-18T10:48:18.664Z,100707.17
2023-03-18T10:50:54.688Z,100707.31
2023-03-18T10:53:42.120Z,100701.67
2023-03-18T10:56:13.054Z,100703.55
2023-03-18T11:02:22.777Z,100699.70
2023-03-18T11:04:58.373Z,100694.22
2023-03-18T11:07:28.271Z,100694.09
2023-03-18T11:10:30.798Z,100693.87
2023-03-18T11:13:02.787Z,100690.77
2023-03-18T11:15:37.188Z,100691.86
2023-03-18T11:18:05.886Z,100691.04
2023-03-18T11:20:47.500Z,100685.88
2023-03-18T11:23:17.952Z,100686.78
2023-03-18T11:25:52.790Z,100682.65
2023-03-18T11:28:23.383Z,100685.91
2023-03-18T11:30:56.425Z,100683.65
2023-03-18T11:33:27.570Z,100679.25
2023-03-18T11:35:59.089Z,100673.61
2023-03-18T11:38:35.838Z,100673.68
2023-03-18T11:41:16.895Z,100665.00
2023-03-18T11:44:01.420Z,100668.55
2023-03-18T11:46:40.675Z,100666.57
2023-03-18T11:49:34.767Z,100661.83
2023-03-18T11:52:24.140Z,100666.35
2023-03-18T11:55:01.545Z,100659.10
2023-03-18T11:57:42.125Z,100655.27
2023-03-18T12:00:28.698Z,100658.34
2023-03-18T12:03:15.432Z,100650.84
2023-03-18T12:06:05.460Z,100653.31
2023-03-18T12:08:45.175Z,100659.81
2023-03-18T12:11:28.672Z,100649.75
2023-03-18T12:14:09.718Z,100646.11
2023-03-18T12:17:05.521Z,100648.92
2023-03-18T12:19:45.415Z,100647.65
2023-03-18T12:22:35.809Z,100647.27
2023-03-18T12:25:13.758Z,100646.20
2023-03-18T12:28:03.566Z,100639.81
2023-03-18T12:30:43.334Z,100641.04
2023-03-18T12:33:19.997Z,100634.02
2023-03-18T12:35:53.597Z,100628.48
2023-03-18T12:38:49.094Z,100634.35
2023-03-18T12:41:30.281Z,100628.44
2023-03-18T12:44:33.952Z,100621.47
2023-03-18T12:47:06.988Z,100622.94
2023-03-18T12:49:48.400Z,100621.71
2023-03-18T12:52:31.338Z,100618.39
2023-03-18T12:55:21.767Z,100608.31
2023-03-18T12:58:04.932Z,100612.34
2023-03-18T13:00:41.077Z,100608.90
2023-03-18T13:03:21.865Z,100609.64
2023-03-18T13:06:04.000Z,100604.92
2023-03-18T13:09:10.619Z,100608.17
2023-03-18T13:12:04.630Z,100609.35
2023-03-18T13:14:47.381Z,100606.23
2023-03-18T13:17:23.514Z,100601.68
2023-03-18T13:19:51.784Z,100599.23
2023-03-18T13:22:32.154Z,100597.53
2023-03-18T13:25:30.698Z,100598.05
2023-03-18T13:28:11.437Z,100595.59
2023-03-18T13:31:01.061Z,100592.23
2023-03-18T13:33:31.646Z,100590.63
2023-03-18T13:36:19.554Z,100587.23
2023-03-18T13:39:24.955Z,100589.55
2023-03-18T13:42:17.001Z,100590.44
2023-03-18T13:45:06.924Z,100589.20
2023-03-18T13:47:40.635Z,100585.88
2023-03-18T13:50:20.520Z,100580.20
2023-03-18T13:52:49.233Z,100575.45
2023-03-18T13:55:42.156Z,100576.79
2023-03-18T13:58:18.740Z,100578.94
2023-03-18T14:01:15.712Z,100571.16
2023-03-18T14:03:43.447Z,100574.16
2023-03-18T14:06:11.195Z,100570.02
2023-03-18T14:08:38.936Z,100566.45
2023-03-18T14:11:17.061Z,100558.76
2023-03-18T14:13:49.851Z,100554.19
2023-03-18T14:16:43.734Z,100555.92
2023-03-18T14:19:21.741Z,100557.96
2023-03-18T14:22:04.720Z,100556.25
2023-03-18T14:24:35.616Z,100556.13
2023-03-18T14:27:04.498Z,100556.95
2023-03-18T14:29:41.842Z,100548.97
2023-03-18T14:32:32.950Z,100543.70
2023-03-18T14:35:28.045Z,100543.52
2023-03-18T14:38:15.630Z,100536.27
2023-03-18T14:40:46.672Z,100533.30
2023-03-18T14:43:23.931Z,100534.11
2023-03-18T14:45:56.772Z,100531.18
2023-03-18T14:48:29.408Z,100531.03
2023-03-18T14:51:00.251Z,100528.90
2023-03-18T14:53:37.725Z,100523.05
2023-03-18T14:56:16.383Z,100520.50
2023-03-18T14:58:46.145Z,100521.31
2023-03-18T15:01:16.182Z,100523.45
2023-03-18T15:03:47.482Z,100520.92
2023-03-18T15:06:41.917Z,100522.63
2023-03-18T15:09:17.420Z,100522.81
2023-03-18T15:11:47.696Z,100529.52
2023-03-18T15:14:23.252Z,100531.03
2023-03-18T15:16:56.623Z,100535.42
2023-03-18T15:19:27.373Z,100536.48
2023-03-18T15:22:04.484Z,100534.79
2023-03-18T15:24:33.020Z,100531.75
2023-03-18T15:27:14.750Z,100532.45
2023-03-18T15:29:51.019Z,100531.40
2023-03-18T15:32:20.531Z,100527.84
2023-03-18T15:35:16.705Z,100528.11
2023-03-18T15:37:46.512Z,100531.48
2023-03-18T15:40:36.757Z,100528.39
2023-03-18T15:43:04.511Z,100529.80
2023-03-18T15:45:34.200Z,100528.95
2023-03-18T15:48:21.733Z,100529.84
2023-03-18T15:51:30.016Z,100531.34
2023-03-18T15:54:04.549Z,100531.68
2023-03-18T15:56:36.045Z,100530.48
2023-03-18T15:59:06.981Z,100530.31
2023-03-18T16:01:35.630Z,100532.23
2023-03-18T16:04:07.623Z,100531.45
2023-03-18T16:06:35.376Z,100534.30
2023-03-18T16:09:17.337Z,100532.79
2023-03-18T16:11:49.529Z,100535.27
2023-03-18T16:14:23.408Z,100533.41
2023-03-18T16:16:51.639Z,100536.14
2023-03-18T16:19:27.935Z,100539.98
2023-03-18T16:21:58.322Z,100539.21
2023-03-18T16:24:26.062Z,100541.16
2023-03-18T16:26:55.710Z,100544.02
2023-03-18T16:29:36.988Z,100543.51
2023-03-18T16:32:05.184Z,100546.88
2023-03-18T16:34:33.629Z,100549.63
2023-03-18T16:37:01.828Z,100552.25
2023-03-18T16:39:35.191Z,100551.01
2023-03-18T16:42:05.135Z,100551.30
2023-03-18T16:44:38.106Z,100555.58
2023-03-18T16:47:06.141Z,100554.05
2023-03-18T16:49:40.392Z,100555.66
2023-03-18T16:52:12.086Z,100555.96
2023-03-18T16:54:40.079Z,100553.36
2023-03-18T16:57:16.870Z,100553.04
2023-03-18T16:59:50.114Z,100556.98
2023-03-18T17:02:35.014Z,100556.34
2023-03-18T17:05:03.946Z,100557.23
2023-03-18T17:07:33.958Z,100561.43
2023-03-18T17:10:01.684Z,100561.94
2023-03-18T17:12:29.592Z,100565.86
2023-03-18T17:14:58.913Z,100566.63
2023-03-18T17:17:33.634Z,100568.48
2023-03-18T17:20:02.409Z,100567.88
2023-03-18T17:22:32.654Z,100569.10
2023-03-18T17:25:02.632Z,100573.48
2023-03-18T17:27:34.041Z,100572.59
2023-03-18T17:30:02.043Z,100577.14
2023-03-18T17:32:29.878Z,100579.52
2023-03-18T17:34:57.743Z,100583.58
2023-03-18T17:37:25.516Z,100588.73
2023-03-18T17:39:54.610Z,100590.64
2023-03-18T17:42:30.144Z,100586.52
2023-03-18T17:45:06.701Z,100589.12
2023-03-18T17:47:34.622Z,100585.14
2023-03-18T17:50:04.813Z,100587.16
2023-03-18T17:52:34.012Z,100586.60
2023-03-18T17:55:01.921Z,100584.02
2023-03-18T17:57:30.332Z,100585.80
2023-03-18T17:59:58.578Z,100582.61
2023-03-18T18:02:26.579Z,100580.56
2023-03-18T18:04:54.377Z,100579.57
2023-03-18T18:07:23.704Z,100575.27
2023-03-18T18:09:51.589Z,100577.65
2023-03-18T18:12:25.042Z,100573.54
2023-03-18T18:14:52.877Z,100569.95
2023-03-18T18:17:20.863Z,100571.75
2023-03-18T18:19:48.672Z,100572.98
2023-03-18T18:22:19.130Z,100568.67
2023-03-18T18:24:48.415Z,100569.67
2023-03-18T18:27:16.124Z,100565.40
2023-03-18T18:29:45.778Z,100566.80
2023-03-18T18:32:15.509Z,100564.87
2023-03-18T18:34:43.360Z,100565.40
2023-03-18T18:37:11.362Z,100561.53
2023-03-18T18:39:39.135Z,100565.73
2023-03-18T18:42:07.659Z,100569.40
2023-03-18T18:44:35.748Z,100569.87
2023-03-18T18:47:03.612Z,100571.86
2023-03-18T18:49:32.482Z,100570.45
2023-03-18T18:52:02.127Z,100573.54
2023-03-18T18:54:29.898Z,100574.85
2023-03-18T18:56:57.688Z,100575.35
2023-03-18T18:59:30.789Z,100576.34
2023-03-18T19:02:00.646Z,100576.75
2023-03-18T19:04:29.165Z,100572.05
2023-03-18T19:06:57.650Z,100570.76
2023-03-18T19:09:26.583Z,100571.05
2023-03-18T19:11:56.432Z,100572.90
2023-03-18T19:14:29.061Z,100575.71
2023-03-18T19:16:59.157Z,100575.10
2023-03-18T19:19:34.831Z,100575.40
2023-03-18T19:22:03.756Z,100575.54
2023-03-18T19:24:39.245Z,100575.65
2023-03-18T19:27:20.487Z,100571.11
2023-03-18T19:29:49.137Z,100575.11
2023-03-18T19:32:21.667Z,100578.70
2023-03-18T19:34:51.725Z,100582.88
2023-03-18T19:37:32.554Z,100579.52
2023-03-18T19:40:03.933Z,100580.84
2023-03-18T19:42:32.668Z,100580.89
2023-03-18T19:45:00.379Z,100580.95
2023-03-18T19:47:30.053Z,100575.70
2023-03-18T19:49:58.040Z,100579.54
2023-03-18T19:52:28.108Z,100580.59
2023-03-18T19:54:56.426Z,100578.48
2023-03-18T19:57:29.974Z,100576.50
2023-03-18T19:59:59.819Z,100572.24
2023-03-18T20:02:33.927Z,100571.12
2023-03-18T20:05:04.508Z,100567.77
2023-03-18T20:07:35.102Z,100567.81
2023-03-18T20:10:02.871Z,100569.23
2023-03-18T20:12:38.993Z,100567.61
2023-03-18T20:15:13.837Z,100566.27
2023-03-18T20:17:46.786Z,100563.38
2023-03-18T20:20:27.467Z,100564.23
2023-03-18T20:23:03.176Z,100562.33
2023-03-18T20:25:34.273Z,100567.23
2023-03-18T20:28:04.610Z,100564.52
2023-03-18T20:30:35.819Z,100562.08
2023-03-18T20:33:04.349Z,100562.27
2023-03-18T20:35:35.494Z,100566.23
2023-03-18T20:38:28.269Z,100568.04
2023-03-18T20:40:56.852Z,100566.08
2023-03-18T20:43:28.457Z,100573.33
2023-03-18T20:45:58.438Z,100574.70
2023-03-18T20:48:27.851Z,100570.47
2023-03-18T20:50:56.287Z,100570.66
2023-03-18T20:53:27.405Z,100569.13
2023-03-18T20:55:55.875Z,100570.44
2023-03-18T20:58:25.598Z,100572.60
2023-03-18T21:00:53.820Z,100569.31
2023-03-18T21:03:23.279Z,100571.09
2023-03-18T21:05:52.787Z,100571.17
2023-03-18T21:08:20.600Z,100569.03
2023-03-18T21:10:48.804Z,100572.26
2023-03-18T21:13:25.632Z,100567.73
2023-03-18T21:15:54.594Z,100572.29
2023-03-18T21:18:22.571Z,100573.23
2023-03-18T21:20:50.872Z,100571.93
2023-03-18T21:23:28.020Z,100572.97
2023-03-18T21:25:56.611Z,100571.02
2023-03-18T21:28:26.949Z,100570.02
2023-03-18T21:30:58.289Z,100567.16
2023-03-18T21:33:33.837Z,100566.82
2023-03-18T21:36:02.810Z,100563.66
2023-03-18T21:38:32.424Z,100561.91
2023-03-18T21:41:01.706Z,100564.86
2023-03-18T21:43:33.389Z,100566.42
2023-03-18T21:46:02.222Z,100566.29
2023-03-18T21:48:31.591Z,100563.81
2023-03-18T21:50:59.780Z,100564.09
2023-03-18T21:53:28.177Z,100565.40
2023-03-18T21:55:56.185Z,100563.20
2023-03-18T21:58:26.345Z,100561.23
2023-03-18T22:00:57.238Z,100560.27
2023-03-18T22:03:28.992Z,100562.20
2023-03-18T22:05:57.617Z,100559.09
2023-03-18T22:08:25.484Z,100556.05
2023-03-18T22:10:53.310Z,100554.61
2023-03-18T22:13:25.805Z,100555.75
2023-03-18T22:15:55.983Z,100555.58
2023-03-18T22:18:23.917Z,100557.61
2023-03-18T22:20:51.989Z,100559.47
2023-03-18T22:23:21.727Z,100559.39
2023-03-18T22:25:50.386Z,100562.23
2023-03-18T22:28:19.051Z,100560.64
2023-03-18T22:30:52.105Z,100565.02
2023-03-18T22:33:24.452Z,100563.66
2023-03-18T22:35:53.101Z,100568.99
2023-03-18T22:38:22.743Z,100568.36
2023-03-18T22:40:55.350Z,100567.34
2023-03-18T22:43:36.606Z,100571.87
2023-03-18T22:46:08.948Z,100570.58
2023-03-18T22:48:37.607Z,100568.78
2023-03-18T22:51:06.660Z,100569.21
2023-03-18T22:53:40.639Z,100570.91
2023-03-18T22:56:11.637Z,100570.09
2023-03-18T23:02:21.521Z,100570.04
2023-03-18T23:04:50.839Z,100571.45
2023-03-18T23:07:29.182Z,100571.17
2023-03-18T23:09:59.034Z,100571.40
2023-03-18T23:12:30.327Z,100571.70
2023-03-18T23:14:59.272Z,100572.61
2023-03-18T23:17:28.421Z,100568.98
2023-03-18T23:19:56.611Z,100569.00
2023-03-18T23:22:30.659Z,100571.77
2023-03-18T23:24:59.491Z,100571.13
2023-03-18T23:27:28.619Z,100572.55
2023-03-18T23:29:56.735Z,100570.48
2023-03-18T23:32:24.972Z,100572.05
2023-03-18T23:34:52.925Z,100576.55
2023-03-18T23:37:20.902Z,100574.35
2023-03-18T23:39:48.638Z,100571.21
2023-03-18T23:42:17.842Z,100566.15
2023-03-18T23:44:46.650Z,100563.29
2023-03-18T23:47:16.928Z,100562.64
2023-03-18T23:49:44.769Z,100561.80
2023-03-18T23:52:14.385Z,100561.43
2023-03-18T23:54:42.990Z,100561.16
2023-03-18T23:57:11.619Z,100565.45
2023-03-18T23:59:39.427Z,100564.30
